map of GOU home
GOU - Airport
Location
City:  Garoua, North (Nord), Cameroon
Name:Garoua International Airport
ICAO:FKKR
IATA:GOU

Details
Type:Airport (Aerodrome, Airfield)
Use:Public/Civil, Military, International (customs port of entry)
Latitude:920'09"N (9.335892)
Longitude:1322'12"E (13.370103)
Datum:WGS 1984
Elevation:794 ft (242 m)
Variation:0.63E (WMM2015 magnetic declination)
0.10 annual change
Runways:1
Longest:11032 × 148 ft (3363 × 45 m), paved

Time
Time Zone:UTC+1
Local Time:

Weather
METAR:FKKR 150600Z 10004KT CAVOK 26/23 Q1013
TAF:FKKR 150500Z 1506/1606 VRB08KT CAVOK PROB40 1514/1520 TS BKN013 FEW023CB

Related Locations
Nearby:
Farthest:MHX: 12059 mi / 19407 km
Manihiki Island (Manuhiki, Tapuahua, Humphrey Island), CK

Find:

   beyond  
but within

Other Information
Maps:
NOTAMs:
Links:
Sources:

  
  • flag of Cameroon
  

Sectional Chart

Flight Planning
at skyvector.com

Satellite Image

Google Maps Satellite view

 

Copyright © 2004-2018 Karl L. Swartz. All rights reserved.
The Great Circle Mapper name and logo are trademarks of the Great Circle Mapper.
All other trademarks mentioned herein belong to their respective owners.
Please see credits for attibutions and further copyright information.

  Follow gcmap on Facebook Follow gcmap on Twitter Follow gcmap on Google+ GCmap on LinkedIn

hCard Microformat

Geo Microformat